sensor_id;sensor_type;location;lat;lon;timestamp;temperature;humidity
18794;DHT22;29610;49.022;12.114;2022-09-09T00:00:41;14.10;99.90
18794;DHT22;29610;49.022;12.114;2022-09-09T00:03:17;14.00;99.90
18794;DHT22;29610;49.022;12.114;2022-09-09T00:05:58;13.90;99.90
18794;DHT22;29610;49.022;12.114;2022-09-09T00:08:43;13.90;99.90
18794;DHT22;29610;49.022;12.114;2022-09-09T00:11:25;13.90;99.90
18794;DHT22;29610;49.022;12.114;2022-09-09T00:14:00;13.90;99.90
18794;DHT22;29610;49.022;12.114;2022-09-09T00:16:37;13.90;99.90
18794;DHT22;29610;49.022;12.114;2022-09-09T00:19:18;14.60;99.90
18794;DHT22;29610;49.022;12.114;2022-09-09T00:21:58;14.00;99.90
18794;DHT22;29610;49.022;12.114;2022-09-09T00:24:41;14.00;99.90
18794;DHT22;29610;49.022;12.114;2022-09-09T00:27:19;14.00;99.90
18794;DHT22;29610;49.022;12.114;2022-09-09T00:29:58;14.00;99.90
18794;DHT22;29610;49.022;12.114;2022-09-09T00:32:41;14.10;99.90
18794;DHT22;29610;49.022;12.114;2022-09-09T00:35:17;14.10;99.90
18794;DHT22;29610;49.022;12.114;2022-09-09T00:37:55;14.00;99.90
18794;DHT22;29610;49.022;12.114;2022-09-09T00:40:32;14.00;99.90
18794;DHT22;29610;49.022;12.114;2022-09-09T00:43:19;14.00;99.90
18794;DHT22;29610;49.022;12.114;2022-09-09T00:46:16;14.10;99.90
18794;DHT22;29610;49.022;12.114;2022-09-09T00:49:04;14.10;99.90
18794;DHT22;29610;49.022;12.114;2022-09-09T00:51:48;14.20;99.90
18794;DHT22;29610;49.022;12.114;2022-09-09T00:54:34;14.20;99.90
18794;DHT22;29610;49.022;12.114;2022-09-09T00:57:19;14.20;99.90
18794;DHT22;29610;49.022;12.114;2022-09-09T01:00:18;14.30;99.90
18794;DHT22;29610;49.022;12.114;2022-09-09T01:03:07;14.30;99.90
18794;DHT22;29610;49.022;12.114;2022-09-09T01:06:00;14.20;99.90
18794;DHT22;29610;49.022;12.114;2022-09-09T01:09:04;14.20;99.90
18794;DHT22;29610;49.022;12.114;2022-09-09T01:11:49;14.20;99.90
18794;DHT22;29610;49.022;12.114;2022-09-09T01:14:37;14.20;99.90
18794;DHT22;29610;49.022;12.114;2022-09-09T01:17:14;14.20;99.90
18794;DHT22;29610;49.022;12.114;2022-09-09T01:20:02;14.30;99.90
18794;DHT22;29610;49.022;12.114;2022-09-09T01:22:47;14.10;99.90
18794;DHT22;29610;49.022;12.114;2022-09-09T01:26:15;14.10;99.90
18794;DHT22;29610;49.022;12.114;2022-09-09T01:28:49;14.20;99.90
18794;DHT22;29610;49.022;12.114;2022-09-09T01:31:26;14.10;99.90
18794;DHT22;29610;49.022;12.114;2022-09-09T01:33:58;14.10;99.90
18794;DHT22;29610;49.022;12.114;2022-09-09T01:36:33;14.10;99.90
18794;DHT22;29610;49.022;12.114;2022-09-09T01:39:06;14.10;99.90
18794;DHT22;29610;49.022;12.114;2022-09-09T01:41:37;14.00;99.90
18794;DHT22;29610;49.022;12.114;2022-09-09T01:44:10;14.00;99.90
18794;DHT22;29610;49.022;12.114;2022-09-09T01:46:42;14.00;99.90
18794;DHT22;29610;49.022;12.114;2022-09-09T01:49:17;14.00;99.90
18794;DHT22;29610;49.022;12.114;2022-09-09T01:51:49;14.00;99.90
18794;DHT22;29610;49.022;12.114;2022-09-09T01:54:28;13.90;99.90
18794;DHT22;29610;49.022;12.114;2022-09-09T01:57:11;13.90;99.90
18794;DHT22;29610;49.022;12.114;2022-09-09T01:59:59;13.90;99.90
18794;DHT22;29610;49.022;12.114;2022-09-09T02:02:46;13.90;99.90
18794;DHT22;29610;49.022;12.114;2022-09-09T02:05:32;14.00;99.90
18794;DHT22;29610;49.022;12.114;2022-09-09T02:08:15;13.90;99.90
18794;DHT22;29610;49.022;12.114;2022-09-09T02:10:58;13.80;99.90
18794;DHT22;29610;49.022;12.114;2022-09-09T02:13:44;13.80;99.90
18794;DHT22;29610;49.022;12.114;2022-09-09T02:16:21;13.90;99.90
18794;DHT22;29610;49.022;12.114;2022-09-09T02:18:57;13.80;99.90
18794;DHT22;29610;49.022;12.114;2022-09-09T02:21:45;13.80;99.90
18794;DHT22;29610;49.022;12.114;2022-09-09T02:24:15;13.80;99.90
18794;DHT22;29610;49.022;12.114;2022-09-09T02:26:53;13.80;99.90
18794;DHT22;29610;49.022;12.114;2022-09-09T02:29:29;13.70;99.90
18794;DHT22;29610;49.022;12.114;2022-09-09T02:32:05;13.70;99.90
18794;DHT22;29610;49.022;12.114;2022-09-09T02:34:42;13.70;99.90
18794;DHT22;29610;49.022;12.114;2022-09-09T02:37:15;13.70;99.90
18794;DHT22;29610;49.022;12.114;2022-09-09T02:39:51;13.80;99.90
18794;DHT22;29610;49.022;12.114;2022-09-09T02:42:21;13.80;99.90
18794;DHT22;29610;49.022;12.114;2022-09-09T02:44:56;13.80;99.90
18794;DHT22;29610;49.022;12.114;2022-09-09T02:47:29;13.80;99.90
18794;DHT22;29610;49.022;12.114;2022-09-09T02:50:13;13.80;99.90
18794;DHT22;29610;49.022;12.114;2022-09-09T02:52:57;13.80;99.90
18794;DHT22;29610;49.022;12.114;2022-09-09T02:55:39;13.80;99.90
18794;DHT22;29610;49.022;12.114;2022-09-09T02:58:12;13.80;99.90
18794;DHT22;29610;49.022;12.114;2022-09-09T03:00:55;13.80;99.90
18794;DHT22;29610;49.022;12.114;2022-09-09T03:03:26;13.90;99.90
18794;DHT22;29610;49.022;12.114;2022-09-09T03:05:56;13.80;99.90
18794;DHT22;29610;49.022;12.114;2022-09-09T03:08:26;13.80;99.90
18794;DHT22;29610;49.022;12.114;2022-09-09T03:10:58;13.80;99.90
18794;DHT22;29610;49.022;12.114;2022-09-09T03:13:34;13.80;99.90
18794;DHT22;29610;49.022;12.114;2022-09-09T03:16:07;13.80;99.90
18794;DHT22;29610;49.022;12.114;2022-09-09T03:18:41;13.80;99.90
18794;DHT22;29610;49.022;12.114;2022-09-09T03:21:09;13.90;99.90
18794;DHT22;29610;49.022;12.114;2022-09-09T03:23:40;13.90;99.90
18794;DHT22;29610;49.022;12.114;2022-09-09T03:26:08;14.00;99.90
18794;DHT22;29610;49.022;12.114;2022-09-09T03:28:43;13.90;99.90
18794;DHT22;29610;49.022;12.114;2022-09-09T03:31:16;14.00;99.90
18794;DHT22;29610;49.022;12.114;2022-09-09T03:33:46;14.00;99.90
18794;DHT22;29610;49.022;12.114;2022-09-09T03:36:16;14.00;99.90
18794;DHT22;29610;49.022;12.114;2022-09-09T03:38:44;14.10;99.90
18794;DHT22;29610;49.022;12.114;2022-09-09T03:41:13;14.10;99.90
18794;DHT22;29610;49.022;12.114;2022-09-09T03:43:42;14.00;99.90
18794;DHT22;29610;49.022;12.114;2022-09-09T03:46:10;14.00;99.90
18794;DHT22;29610;49.022;12.114;2022-09-09T03:48:40;14.00;99.90
18794;DHT22;29610;49.022;12.114;2022-09-09T03:51:09;14.10;99.90
18794;DHT22;29610;49.022;12.114;2022-09-09T03:53:37;14.10;99.90
18794;DHT22;29610;49.022;12.114;2022-09-09T03:56:07;14.10;99.90
18794;DHT22;29610;49.022;12.114;2022-09-09T03:58:37;14.10;99.90
18794;DHT22;29610;49.022;12.114;2022-09-09T04:01:09;14.10;99.90
18794;DHT22;29610;49.022;12.114;2022-09-09T04:03:43;14.10;99.90
18794;DHT22;29610;49.022;12.114;2022-09-09T04:06:13;14.10;99.90
18794;DHT22;29610;49.022;12.114;2022-09-09T04:08:45;14.10;99.90
18794;DHT22;29610;49.022;12.114;2022-09-09T04:11:16;14.10;99.90
18794;DHT22;29610;49.022;12.114;2022-09-09T04:13:46;14.10;99.90
18794;DHT22;29610;49.022;12.114;2022-09-09T04:16:17;14.10;99.90
18794;DHT22;29610;49.022;12.114;2022-09-09T04:18:48;14.10;99.90
18794;DHT22;29610;49.022;12.114;2022-09-09T04:21:17;14.10;99.90
18794;DHT22;29610;49.022;12.114;2022-09-09T04:23:46;14.10;99.90
18794;DHT22;29610;49.022;12.114;2022-09-09T04:26:14;14.10;99.90
18794;DHT22;29610;49.022;12.114;2022-09-09T04:28:44;14.10;99.90
18794;DHT22;29610;49.022;12.114;2022-09-09T04:31:20;14.10;99.90
18794;DHT22;29610;49.022;12.114;2022-09-09T04:33:55;14.10;99.90
18794;DHT22;29610;49.022;12.114;2022-09-09T04:36:24;14.10;99.90
18794;DHT22;29610;49.022;12.114;2022-09-09T04:38:57;14.10;99.90
18794;DHT22;29610;49.022;12.114;2022-09-09T04:41:26;14.10;99.90
18794;DHT22;29610;49.022;12.114;2022-09-09T04:43:54;14.10;99.90
18794;DHT22;29610;49.022;12.114;2022-09-09T04:46:23;14.10;99.90
18794;DHT22;29610;49.022;12.114;2022-09-09T04:48:52;14.10;99.90
18794;DHT22;29610;49.022;12.114;2022-09-09T04:51:26;14.00;99.90
18794;DHT22;29610;49.022;12.114;2022-09-09T04:53:55;14.00;99.90
18794;DHT22;29610;49.022;12.114;2022-09-09T04:56:23;13.90;99.90
18794;DHT22;29610;49.022;12.114;2022-09-09T04:58:56;13.90;99.90
18794;DHT22;29610;49.022;12.114;2022-09-09T05:01:38;14.00;99.90
18794;DHT22;29610;49.022;12.114;2022-09-09T05:04:07;14.00;99.90
18794;DHT22;29610;49.022;12.114;2022-09-09T05:06:37;14.00;99.90
18794;DHT22;29610;49.022;12.114;2022-09-09T05:09:07;14.10;99.90
18794;DHT22;29610;49.022;12.114;2022-09-09T05:11:35;14.10;99.90
18794;DHT22;29610;49.022;12.114;2022-09-09T05:14:27;14.10;99.90
18794;DHT22;29610;49.022;12.114;2022-09-09T05:16:56;14.00;99.90
18794;DHT22;29610;49.022;12.114;2022-09-09T05:19:25;14.10;99.90
18794;DHT22;29610;49.022;12.114;2022-09-09T05:21:55;14.20;99.90
18794;DHT22;29610;49.022;12.114;2022-09-09T05:24:30;14.30;99.90
18794;DHT22;29610;49.022;12.114;2022-09-09T05:27:01;14.40;99.90
18794;DHT22;29610;49.022;12.114;2022-09-09T05:29:29;14.50;99.90
18794;DHT22;29610;49.022;12.114;2022-09-09T05:32:02;14.60;99.90
18794;DHT22;29610;49.022;12.114;2022-09-09T05:34:31;14.80;99.90
18794;DHT22;29610;49.022;12.114;2022-09-09T05:37:01;14.90;99.90
18794;DHT22;29610;49.022;12.114;2022-09-09T05:39:31;15.10;99.90
18794;DHT22;29610;49.022;12.114;2022-09-09T05:42:00;15.30;99.90
18794;DHT22;29610;49.022;12.114;2022-09-09T05:44:30;15.30;99.90
18794;DHT22;29610;49.022;12.114;2022-09-09T05:47:00;15.50;99.90
18794;DHT22;29610;49.022;12.114;2022-09-09T05:49:28;15.60;99.90
18794;DHT22;29610;49.022;12.114;2022-09-09T05:51:57;15.90;99.90
18794;DHT22;29610;49.022;12.114;2022-09-09T05:54:26;15.90;99.90
18794;DHT22;29610;49.022;12.114;2022-09-09T05:56:55;15.90;99.90
18794;DHT22;29610;49.022;12.114;2022-09-09T05:59:24;16.00;99.90
18794;DHT22;29610;49.022;12.114;2022-09-09T06:01:55;16.10;99.90
18794;DHT22;29610;49.022;12.114;2022-09-09T06:04:29;16.20;99.90
18794;DHT22;29610;49.022;12.114;2022-09-09T06:07:00;16.40;99.90
18794;DHT22;29610;49.022;12.114;2022-09-09T06:09:31;16.50;99.90
18794;DHT22;29610;49.022;12.114;2022-09-09T06:11:59;16.40;99.90
18794;DHT22;29610;49.022;12.114;2022-09-09T06:14:32;16.30;99.90
18794;DHT22;29610;49.022;12.114;2022-09-09T06:17:02;16.10;99.90
18794;DHT22;29610;49.022;12.114;2022-09-09T06:19:30;16.00;99.90
18794;DHT22;29610;49.022;12.114;2022-09-09T06:22:00;15.90;99.90
18794;DHT22;29610;49.022;12.114;2022-09-09T06:24:32;15.80;99.90
18794;DHT22;29610;49.022;12.114;2022-09-09T06:27:02;15.70;99.90
18794;DHT22;29610;49.022;12.114;2022-09-09T06:29:34;15.60;99.90
18794;DHT22;29610;49.022;12.114;2022-09-09T06:32:03;15.70;99.90
18794;DHT22;29610;49.022;12.114;2022-09-09T06:34:31;15.90;99.90
18794;DHT22;29610;49.022;12.114;2022-09-09T06:37:00;16.00;99.90
18794;DHT22;29610;49.022;12.114;2022-09-09T06:39:44;16.20;99.90
18794;DHT22;29610;49.022;12.114;2022-09-09T06:42:13;16.50;99.90
18794;DHT22;29610;49.022;12.114;2022-09-09T06:44:48;16.70;99.90
18794;DHT22;29610;49.022;12.114;2022-09-09T06:47:23;16.90;99.90
18794;DHT22;29610;49.022;12.114;2022-09-09T06:49:53;17.00;99.90
18794;DHT22;29610;49.022;12.114;2022-09-09T06:52:22;17.10;99.90
18794;DHT22;29610;49.022;12.114;2022-09-09T06:54:55;17.20;99.90
18794;DHT22;29610;49.022;12.114;2022-09-09T06:57:25;17.30;99.90
18794;DHT22;29610;49.022;12.114;2022-09-09T07:00:07;17.50;99.90
18794;DHT22;29610;49.022;12.114;2022-09-09T07:02:36;17.70;99.90
18794;DHT22;29610;49.022;12.114;2022-09-09T07:05:07;18.00;99.90
18794;DHT22;29610;49.022;12.114;2022-09-09T07:07:37;17.80;99.90
18794;DHT22;29610;49.022;12.114;2022-09-09T07:10:09;17.80;99.90
18794;DHT22;29610;49.022;12.114;2022-09-09T07:12:39;18.10;99.90
18794;DHT22;29610;49.022;12.114;2022-09-09T07:15:10;18.30;99.90
18794;DHT22;29610;49.022;12.114;2022-09-09T07:17:43;18.70;99.90
18794;DHT22;29610;49.022;12.114;2022-09-09T07:20:12;19.10;99.90
18794;DHT22;29610;49.022;12.114;2022-09-09T07:22:41;19.40;99.90
18794;DHT22;29610;49.022;12.114;2022-09-09T07:25:12;19.50;99.90
18794;DHT22;29610;49.022;12.114;2022-09-09T07:27:41;19.60;99.90
18794;DHT22;29610;49.022;12.114;2022-09-09T07:30:11;19.60;99.90
18794;DHT22;29610;49.022;12.114;2022-09-09T07:32:51;19.70;99.90
18794;DHT22;29610;49.022;12.114;2022-09-09T07:35:19;19.90;99.90
18794;DHT22;29610;49.022;12.114;2022-09-09T07:37:49;19.90;99.90
18794;DHT22;29610;49.022;12.114;2022-09-09T07:40:20;20.00;99.90
18794;DHT22;29610;49.022;12.114;2022-09-09T07:42:50;20.00;99.90
18794;DHT22;29610;49.022;12.114;2022-09-09T07:45:21;20.10;99.90
18794;DHT22;29610;49.022;12.114;2022-09-09T07:47:50;20.30;99.90
18794;DHT22;29610;49.022;12.114;2022-09-09T07:50:20;20.50;99.90
18794;DHT22;29610;49.022;12.114;2022-09-09T07:52:50;20.60;99.90
18794;DHT22;29610;49.022;12.114;2022-09-09T07:55:21;20.50;99.90
18794;DHT22;29610;49.022;12.114;2022-09-09T07:57:53;20.20;99.90
18794;DHT22;29610;49.022;12.114;2022-09-09T08:00:23;19.80;99.90
18794;DHT22;29610;49.022;12.114;2022-09-09T08:02:55;19.10;99.90
18794;DHT22;29610;49.022;12.114;2022-09-09T08:05:24;18.60;99.90
18794;DHT22;29610;49.022;12.114;2022-09-09T08:07:53;18.20;99.90
18794;DHT22;29610;49.022;12.114;2022-09-09T08:10:23;17.80;99.90
18794;DHT22;29610;49.022;12.114;2022-09-09T08:12:53;17.50;99.90
18794;DHT22;29610;49.022;12.114;2022-09-09T08:15:45;17.20;99.90
18794;DHT22;29610;49.022;12.114;2022-09-09T08:18:14;17.00;99.90
18794;DHT22;29610;49.022;12.114;2022-09-09T08:20:44;16.80;99.90
18794;DHT22;29610;49.022;12.114;2022-09-09T08:23:12;16.70;99.90
18794;DHT22;29610;49.022;12.114;2022-09-09T08:25:46;16.60;99.90
18794;DHT22;29610;49.022;12.114;2022-09-09T08:28:16;16.50;99.90
18794;DHT22;29610;49.022;12.114;2022-09-09T08:30:45;16.60;99.90
18794;DHT22;29610;49.022;12.114;2022-09-09T08:33:15;16.50;99.90
18794;DHT22;29610;49.022;12.114;2022-09-09T08:35:50;16.40;99.90
18794;DHT22;29610;49.022;12.114;2022-09-09T08:38:20;16.30;99.90
18794;DHT22;29610;49.022;12.114;2022-09-09T08:40:51;16.40;99.90
18794;DHT22;29610;49.022;12.114;2022-09-09T08:43:31;16.30;99.90
18794;DHT22;29610;49.022;12.114;2022-09-09T08:46:11;16.40;99.90
18794;DHT22;29610;49.022;12.114;2022-09-09T08:48:54;16.40;99.90
18794;DHT22;29610;49.022;12.114;2022-09-09T08:51:30;16.60;99.90
18794;DHT22;29610;49.022;12.114;2022-09-09T08:54:02;16.70;99.90
18794;DHT22;29610;49.022;12.114;2022-09-09T08:56:34;16.70;99.90
18794;DHT22;29610;49.022;12.114;2022-09-09T08:59:04;16.90;99.90
18794;DHT22;29610;49.022;12.114;2022-09-09T09:01:44;17.20;99.90
18794;DHT22;29610;49.022;12.114;2022-09-09T09:04:37;17.50;99.90
18794;DHT22;29610;49.022;12.114;2022-09-09T09:07:25;17.90;99.90
18794;DHT22;29610;49.022;12.114;2022-09-09T09:10:15;18.30;99.90
18794;DHT22;29610;49.022;12.114;2022-09-09T09:13:23;18.50;99.90
18794;DHT22;29610;49.022;12.114;2022-09-09T09:16:06;18.80;99.90
18794;DHT22;29610;49.022;12.114;2022-09-09T09:18:45;19.10;99.90
18794;DHT22;29610;49.022;12.114;2022-09-09T09:21:17;19.40;99.90
18794;DHT22;29610;49.022;12.114;2022-09-09T09:23:57;19.60;99.90
18794;DHT22;29610;49.022;12.114;2022-09-09T09:26:32;19.80;99.90
18794;DHT22;29610;49.022;12.114;2022-09-09T09:29:11;19.90;99.90
18794;DHT22;29610;49.022;12.114;2022-09-09T09:31:43;20.10;99.90
18794;DHT22;29610;49.022;12.114;2022-09-09T09:34:16;20.30;99.90
18794;DHT22;29610;49.022;12.114;2022-09-09T09:36:53;20.30;99.90
18794;DHT22;29610;49.022;12.114;2022-09-09T09:39:27;20.30;99.90
18794;DHT22;29610;49.022;12.114;2022-09-09T09:42:17;20.40;99.90
18794;DHT22;29610;49.022;12.114;2022-09-09T09:44:53;20.40;99.90
18794;DHT22;29610;49.022;12.114;2022-09-09T09:47:23;20.40;99.90
18794;DHT22;29610;49.022;12.114;2022-09-09T09:50:16;20.50;99.90
18794;DHT22;29610;49.022;12.114;2022-09-09T09:52:54;20.80;99.90
18794;DHT22;29610;49.022;12.114;2022-09-09T09:55:26;20.80;99.90
18794;DHT22;29610;49.022;12.114;2022-09-09T09:58:02;20.90;99.90
18794;DHT22;29610;49.022;12.114;2022-09-09T10:00:34;21.10;99.90
18794;DHT22;29610;49.022;12.114;2022-09-09T10:03:19;21.20;99.90
18794;DHT22;29610;49.022;12.114;2022-09-09T10:05:53;21.50;99.90
18794;DHT22;29610;49.022;12.114;2022-09-09T10:08:23;21.40;99.90
18794;DHT22;29610;49.022;12.114;2022-09-09T10:11:04;21.40;99.90
18794;DHT22;29610;49.022;12.114;2022-09-09T10:13:53;21.70;99.90
18794;DHT22;29610;49.022;12.114;2022-09-09T10:16:47;22.20;99.90
18794;DHT22;29610;49.022;12.114;2022-09-09T10:19:30;22.80;99.90
18794;DHT22;29610;49.022;12.114;2022-09-09T10:22:08;22.90;99.90
18794;DHT22;29610;49.022;12.114;2022-09-09T10:28:04;23.20;99.90
18794;DHT22;29610;49.022;12.114;2022-09-09T10:30:53;23.70;99.90
18794;DHT22;29610;49.022;12.114;2022-09-09T10:33:42;24.20;99.90
18794;DHT22;29610;49.022;12.114;2022-09-09T10:36:21;24.10;99.90
18794;DHT22;29610;49.022;12.114;2022-09-09T10:38:57;23.70;99.90
18794;DHT22;29610;49.022;12.114;2022-09-09T10:41:40;23.70;99.90
18794;DHT22;29610;49.022;12.114;2022-09-09T10:44:30;23.60;99.90
18794;DHT22;29610;49.022;12.114;2022-09-09T10:47:41;23.30;99.90
18794;DHT22;29610;49.022;12.114;2022-09-09T10:50:35;23.00;99.90
18794;DHT22;29610;49.022;12.114;2022-09-09T10:53:36;22.80;99.90
18794;DHT22;29610;49.022;12.114;2022-09-09T10:56:11;22.70;99.90
18794;DHT22;29610;49.022;12.114;2022-09-09T10:58:47;22.80;99.90
18794;DHT22;29610;49.022;12.114;2022-09-09T11:01:23;23.20;99.90
18794;DHT22;29610;49.022;12.114;2022-09-09T11:03:57;23.30;99.90
18794;DHT22;29610;49.022;12.114;2022-09-09T11:06:36;23.40;99.90
18794;DHT22;29610;49.022;12.114;2022-09-09T11:09:15;23.50;99.90
18794;DHT22;29610;49.022;12.114;2022-09-09T11:11:51;23.20;99.90
18794;DHT22;29610;49.022;12.114;2022-09-09T11:14:27;23.20;99.90
18794;DHT22;29610;49.022;12.114;2022-09-09T11:17:09;23.30;99.90
18794;DHT22;29610;49.022;12.114;2022-09-09T11:19:42;23.40;99.90
18794;DHT22;29610;49.022;12.114;2022-09-09T11:22:20;23.40;99.90
18794;DHT22;29610;49.022;12.114;2022-09-09T11:24:59;24.00;99.90
18794;DHT22;29610;49.022;12.114;2022-09-09T11:27:39;24.40;99.90
18794;DHT22;29610;49.022;12.114;2022-09-09T11:30:22;24.90;99.90
18794;DHT22;29610;49.022;12.114;2022-09-09T11:33:41;25.00;99.60
18794;DHT22;29610;49.022;12.114;2022-09-09T11:37:02;25.10;98.50
18794;DHT22;29610;49.022;12.114;2022-09-09T11:40:20;24.20;98.00
18794;DHT22;29610;49.022;12.114;2022-09-09T11:43:02;24.00;99.70
18794;DHT22;29610;49.022;12.114;2022-09-09T11:45:34;24.00;98.50
18794;DHT22;29610;49.022;12.114;2022-09-09T11:48:23;24.20;99.00
18794;DHT22;29610;49.022;12.114;2022-09-09T11:51:07;23.90;98.70
18794;DHT22;29610;49.022;12.114;2022-09-09T11:53:51;23.80;99.80
18794;DHT22;29610;49.022;12.114;2022-09-09T11:56:26;23.60;99.10
18794;DHT22;29610;49.022;12.114;2022-09-09T11:59:00;23.40;99.40
18794;DHT22;29610;49.022;12.114;2022-09-09T12:01:36;24.10;99.90
18794;DHT22;29610;49.022;12.114;2022-09-09T12:04:15;24.50;98.80
18794;DHT22;29610;49.022;12.114;2022-09-09T12:06:59;25.10;97.80
18794;DHT22;29610;49.022;12.114;2022-09-09T12:09:43;25.10;97.50
18794;DHT22;29610;49.022;12.114;2022-09-09T12:12:26;25.20;97.10
18794;DHT22;29610;49.022;12.114;2022-09-09T12:15:22;25.10;95.80
18794;DHT22;29610;49.022;12.114;2022-09-09T12:17:56;24.40;97.60
18794;DHT22;29610;49.022;12.114;2022-09-09T12:20:35;24.00;97.30
18794;DHT22;29610;49.022;12.114;2022-09-09T12:25:06;23.70;98.10
18794;DHT22;29610;49.022;12.114;2022-09-09T12:28:01;23.70;98.50
18794;DHT22;29610;49.022;12.114;2022-09-09T12:30:41;24.10;98.80
18794;DHT22;29610;49.022;12.114;2022-09-09T12:33:21;24.70;97.60
18794;DHT22;29610;49.022;12.114;2022-09-09T12:35:55;25.20;97.00
18794;DHT22;29610;49.022;12.114;2022-09-09T12:38:36;24.90;96.90
18794;DHT22;29610;49.022;12.114;2022-09-09T12:41:21;25.40;97.10
18794;DHT22;29610;49.022;12.114;2022-09-09T12:44:03;25.20;95.90
18794;DHT22;29610;49.022;12.114;2022-09-09T12:46:36;24.90;96.10
18794;DHT22;29610;49.022;12.114;2022-09-09T12:49:26;24.10;96.80
18794;DHT22;29610;49.022;12.114;2022-09-09T12:52:03;23.40;97.60
18794;DHT22;29610;49.022;12.114;2022-09-09T12:54:35;23.00;98.30
18794;DHT22;29610;49.022;12.114;2022-09-09T12:57:11;22.60;99.10
18794;DHT22;29610;49.022;12.114;2022-09-09T12:59:42;22.50;99.70
18794;DHT22;29610;49.022;12.114;2022-09-09T13:02:21;22.30;99.90
18794;DHT22;29610;49.022;12.114;2022-09-09T13:04:51;21.70;99.90
18794;DHT22;29610;49.022;12.114;2022-09-09T13:07:22;21.50;99.90
18794;DHT22;29610;49.022;12.114;2022-09-09T13:09:52;21.20;99.90
18794;DHT22;29610;49.022;12.114;2022-09-09T13:12:23;21.10;99.90
18794;DHT22;29610;49.022;12.114;2022-09-09T13:14:53;20.90;99.90
18794;DHT22;29610;49.022;12.114;2022-09-09T13:17:26;20.80;99.90
18794;DHT22;29610;49.022;12.114;2022-09-09T13:19:56;20.60;99.90
18794;DHT22;29610;49.022;12.114;2022-09-09T13:22:31;20.80;99.90
18794;DHT22;29610;49.022;12.114;2022-09-09T13:25:05;21.50;99.90
18794;DHT22;29610;49.022;12.114;2022-09-09T13:27:57;21.90;99.90
18794;DHT22;29610;49.022;12.114;2022-09-09T13:30:29;22.20;99.90
18794;DHT22;29610;49.022;12.114;2022-09-09T13:33:02;22.70;99.90
18794;DHT22;29610;49.022;12.114;2022-09-09T13:35:33;23.20;99.90
18794;DHT22;29610;49.022;12.114;2022-09-09T13:38:07;23.60;99.20
18794;DHT22;29610;49.022;12.114;2022-09-09T13:40:37;23.60;98.40
18794;DHT22;29610;49.022;12.114;2022-09-09T13:43:18;23.40;98.30
18794;DHT22;29610;49.022;12.114;2022-09-09T13:45:54;23.20;99.40
18794;DHT22;29610;49.022;12.114;2022-09-09T13:48:25;23.40;99.70
18794;DHT22;29610;49.022;12.114;2022-09-09T13:50:59;23.30;98.90
18794;DHT22;29610;49.022;12.114;2022-09-09T13:53:32;23.10;99.10
18794;DHT22;29610;49.022;12.114;2022-09-09T13:56:03;22.70;98.70
18794;DHT22;29610;49.022;12.114;2022-09-09T13:58:34;22.70;99.90
18794;DHT22;29610;49.022;12.114;2022-09-09T14:01:03;22.90;99.90
18794;DHT22;29610;49.022;12.114;2022-09-09T14:03:32;23.20;99.30
18794;DHT22;29610;49.022;12.114;2022-09-09T14:06:04;23.40;99.10
18794;DHT22;29610;49.022;12.114;2022-09-09T14:08:34;23.70;98.20
18794;DHT22;29610;49.022;12.114;2022-09-09T14:11:04;23.60;96.30
18794;DHT22;29610;49.022;12.114;2022-09-09T14:13:34;23.70;95.40
18794;DHT22;29610;49.022;12.114;2022-09-09T14:16:04;23.80;95.20
18794;DHT22;29610;49.022;12.114;2022-09-09T14:18:33;23.70;94.50
18794;DHT22;29610;49.022;12.114;2022-09-09T14:21:04;23.70;94.40
18794;DHT22;29610;49.022;12.114;2022-09-09T14:23:33;23.70;94.10
18794;DHT22;29610;49.022;12.114;2022-09-09T14:26:04;23.70;94.10
18794;DHT22;29610;49.022;12.114;2022-09-09T14:28:36;23.80;93.80
18794;DHT22;29610;49.022;12.114;2022-09-09T14:31:21;24.00;94.10
18794;DHT22;29610;49.022;12.114;2022-09-09T14:33:50;24.00;93.60
18794;DHT22;29610;49.022;12.114;2022-09-09T14:36:19;24.00;92.90
18794;DHT22;29610;49.022;12.114;2022-09-09T14:38:48;23.80;93.70
18794;DHT22;29610;49.022;12.114;2022-09-09T14:41:18;23.80;93.30
18794;DHT22;29610;49.022;12.114;2022-09-09T14:43:50;23.80;93.50
18794;DHT22;29610;49.022;12.114;2022-09-09T14:46:20;23.80;93.80
18794;DHT22;29610;49.022;12.114;2022-09-09T14:48:49;23.60;94.40
18794;DHT22;29610;49.022;12.114;2022-09-09T14:51:24;23.50;93.10
18794;DHT22;29610;49.022;12.114;2022-09-09T14:53:56;23.40;93.70
18794;DHT22;29610;49.022;12.114;2022-09-09T14:56:28;23.30;93.60
18794;DHT22;29610;49.022;12.114;2022-09-09T14:58:59;23.30;94.50
18794;DHT22;29610;49.022;12.114;2022-09-09T15:01:29;23.40;93.60
18794;DHT22;29610;49.022;12.114;2022-09-09T15:04:00;23.40;93.90
18794;DHT22;29610;49.022;12.114;2022-09-09T15:06:33;23.40;93.10
18794;DHT22;29610;49.022;12.114;2022-09-09T15:09:04;23.30;93.60
18794;DHT22;29610;49.022;12.114;2022-09-09T15:11:35;23.20;92.90
18794;DHT22;29610;49.022;12.114;2022-09-09T15:14:08;23.00;93.40
18794;DHT22;29610;49.022;12.114;2022-09-09T15:16:39;22.90;94.40
18794;DHT22;29610;49.022;12.114;2022-09-09T15:19:08;22.80;93.50
18794;DHT22;29610;49.022;12.114;2022-09-09T15:21:37;22.50;94.20
18794;DHT22;29610;49.022;12.114;2022-09-09T15:24:06;22.20;94.60
18794;DHT22;29610;49.022;12.114;2022-09-09T15:26:35;21.90;94.40
18794;DHT22;29610;49.022;12.114;2022-09-09T15:29:07;21.70;94.80
18794;DHT22;29610;49.022;12.114;2022-09-09T15:31:36;21.40;95.20
18794;DHT22;29610;49.022;12.114;2022-09-09T15:34:05;21.30;96.00
18794;DHT22;29610;49.022;12.114;2022-09-09T15:36:36;21.10;96.80
18794;DHT22;29610;49.022;12.114;2022-09-09T15:39:07;21.10;96.80
18794;DHT22;29610;49.022;12.114;2022-09-09T15:41:39;21.00;97.00
18794;DHT22;29610;49.022;12.114;2022-09-09T15:44:10;21.00;96.80
18794;DHT22;29610;49.022;12.114;2022-09-09T15:46:40;20.90;96.60
18794;DHT22;29610;49.022;12.114;2022-09-09T15:49:11;20.90;97.00
18794;DHT22;29610;49.022;12.114;2022-09-09T15:51:42;20.80;97.50
18794;DHT22;29610;49.022;12.114;2022-09-09T15:54:13;20.80;97.10
18794;DHT22;29610;49.022;12.114;2022-09-09T15:56:46;20.80;97.20
18794;DHT22;29610;49.022;12.114;2022-09-09T15:59:18;20.90;97.00
18794;DHT22;29610;49.022;12.114;2022-09-09T16:01:47;20.90;96.40
18794;DHT22;29610;49.022;12.114;2022-09-09T16:04:18;20.90;96.10
18794;DHT22;29610;49.022;12.114;2022-09-09T16:06:50;20.90;96.30
18794;DHT22;29610;49.022;12.114;2022-09-09T16:09:19;20.90;96.20
18794;DHT22;29610;49.022;12.114;2022-09-09T16:11:48;20.70;96.50